sensor_id;sensor_type;location;lat;lon;timestamp;pressure;altitude;pressure_sealevel;temperature;humidity
75855;BME280;64502;59.976;30.316;2023-09-19T00:01:14;101532.03;;;9.21;78.79
75855;BME280;64502;59.976;30.316;2023-09-19T00:03:40;101540.91;;;9.19;77.11
75855;BME280;64502;59.976;30.316;2023-09-19T00:06:06;101527.88;;;9.16;77.58
75855;BME280;64502;59.976;30.316;2023-09-19T00:08:33;101528.84;;;9.13;78.02
75855;BME280;64502;59.976;30.316;2023-09-19T00:10:59;101524.63;;;9.09;77.52
75855;BME280;64502;59.976;30.316;2023-09-19T00:13:32;101522.97;;;9.06;78.97
75855;BME280;64502;59.976;30.316;2023-09-19T00:15:57;101523.09;;;9.03;78.17
75855;BME280;64502;59.976;30.316;2023-09-19T00:18:25;101523.13;;;9.02;78.22
75855;BME280;64502;59.976;30.316;2023-09-19T00:20:58;101521.47;;;8.99;78.49
75855;BME280;64502;59.976;30.316;2023-09-19T00:23:24;101521.59;;;8.96;79.06
75855;BME280;64502;59.976;30.316;2023-09-19T00:25:50;101505.94;;;8.93;78.05
75855;BME280;64502;59.976;30.316;2023-09-19T00:28:17;101515.59;;;8.93;78.66
75855;BME280;64502;59.976;30.316;2023-09-19T00:30:45;101519.22;;;8.90;79.54
75855;BME280;64502;59.976;30.316;2023-09-19T00:33:15;101521.03;;;8.88;77.89
75855;BME280;64502;59.976;30.316;2023-09-19T00:35:51;101516.69;;;8.87;79.94
75855;BME280;64502;59.976;30.316;2023-09-19T00:38:17;101500.16;;;8.83;77.55
75855;BME280;64502;59.976;30.316;2023-09-19T00:40:47;101508.13;;;8.82;77.75
75855;BME280;64502;59.976;30.316;2023-09-19T00:43:12;101506.50;;;8.78;79.33
75855;BME280;64502;59.976;30.316;2023-09-19T00:45:39;101504.84;;;8.75;78.95
75855;BME280;64502;59.976;30.316;2023-09-19T00:48:07;101506.75;;;8.72;79.15
75855;BME280;64502;59.976;30.316;2023-09-19T00:50:34;101505.09;;;8.69;79.58
75855;BME280;64502;59.976;30.316;2023-09-19T00:53:01;101504.28;;;8.67;79.46
75855;BME280;64502;59.976;30.316;2023-09-19T00:55:28;101514.75;;;8.69;79.56
75855;BME280;64502;59.976;30.316;2023-09-19T00:57:56;101503.44;;;8.66;79.04
75855;BME280;64502;59.976;30.316;2023-09-19T01:00:22;101498.16;;;8.66;78.95
75855;BME280;64502;59.976;30.316;2023-09-19T01:02:49;101490.34;;;8.65;79.84
75855;BME280;64502;59.976;30.316;2023-09-19T01:05:14;101485.97;;;8.64;80.15
75855;BME280;64502;59.976;30.316;2023-09-19T01:07:41;101478.16;;;8.62;80.64
75855;BME280;64502;59.976;30.316;2023-09-19T01:10:09;101466.72;;;8.63;78.98
75855;BME280;64502;59.976;30.316;2023-09-19T01:32:03;101429.44;;;8.52;78.67
75855;BME280;64502;59.976;30.316;2023-09-19T01:34:53;101422.41;;;8.53;78.52
75855;BME280;64502;59.976;30.316;2023-09-19T01:37:21;101412.00;;;8.50;79.92
75855;BME280;64502;59.976;30.316;2023-09-19T01:39:53;101405.03;;;8.49;80.11
75855;BME280;64502;59.976;30.316;2023-09-19T01:45:03;101405.03;;;8.49;79.24
75855;BME280;64502;59.976;30.316;2023-09-19T01:47:33;101397.94;;;8.51;76.51
75855;BME280;64502;59.976;30.316;2023-09-19T01:50:31;101399.72;;;8.50;79.05
75855;BME280;64502;59.976;30.316;2023-09-19T01:53:03;101400.63;;;8.49;77.55
75855;BME280;64502;59.976;30.316;2023-09-19T01:55:30;101387.53;;;8.48;78.54
75855;BME280;64502;59.976;30.316;2023-09-19T01:58:07;101381.38;;;8.49;78.79
75855;BME280;64502;59.976;30.316;2023-09-19T02:00:36;101377.84;;;8.48;78.84
75855;BME280;64502;59.976;30.316;2023-09-19T02:03:03;101372.56;;;8.50;78.69
75855;BME280;64502;59.976;30.316;2023-09-19T02:05:28;101360.97;;;8.54;78.88
75855;BME280;64502;59.976;30.316;2023-09-19T02:07:54;101363.44;;;8.58;77.92
75855;BME280;64502;59.976;30.316;2023-09-19T02:10:21;101362.34;;;8.64;78.96
75855;BME280;64502;59.976;30.316;2023-09-19T02:12:47;101356.81;;;8.70;79.22
75855;BME280;64502;59.976;30.316;2023-09-19T02:15:13;101360.22;;;8.74;77.32
75855;BME280;64502;59.976;30.316;2023-09-19T02:17:41;101359.28;;;8.75;78.54
75855;BME280;64502;59.976;30.316;2023-09-19T02:20:08;101354.00;;;8.75;76.79
75855;BME280;64502;59.976;30.316;2023-09-19T02:22:36;101336.53;;;8.74;77.79
75855;BME280;64502;59.976;30.316;2023-09-19T02:25:02;101326.91;;;8.73;77.62
75855;BME280;64502;59.976;30.316;2023-09-19T02:27:30;101321.53;;;8.76;78.58
75855;BME280;64502;59.976;30.316;2023-09-19T02:29:56;101316.28;;;8.76;77.42
75855;BME280;64502;59.976;30.316;2023-09-19T02:32:21;101313.66;;;8.76;77.65
75855;BME280;64502;59.976;30.316;2023-09-19T02:34:48;101303.97;;;8.76;78.54
75855;BME280;64502;59.976;30.316;2023-09-19T02:37:14;101304.88;;;8.75;77.04
75855;BME280;64502;59.976;30.316;2023-09-19T02:39:41;101302.19;;;8.77;77.60
75855;BME280;64502;59.976;30.316;2023-09-19T02:42:07;101285.47;;;8.78;78.90
75855;BME280;64502;59.976;30.316;2023-09-19T02:44:32;101280.16;;;8.79;77.70
75855;BME280;64502;59.976;30.316;2023-09-19T02:46:59;101278.34;;;8.81;77.29
75855;BME280;64502;59.976;30.316;2023-09-19T02:49:24;101268.66;;;8.82;77.34
75855;BME280;64502;59.976;30.316;2023-09-19T02:51:50;101277.53;;;8.79;76.96
75855;BME280;64502;59.976;30.316;2023-09-19T02:54:16;101254.75;;;8.78;76.93
75855;BME280;64502;59.976;30.316;2023-09-19T02:56:43;101259.16;;;8.78;77.66
75855;BME280;64502;59.976;30.316;2023-09-19T02:59:08;101261.03;;;8.76;77.69
75855;BME280;64502;59.976;30.316;2023-09-19T03:01:35;101250.59;;;8.73;77.73
75855;BME280;64502;59.976;30.316;2023-09-19T03:04:02;101258.56;;;8.71;76.32
75855;BME280;64502;59.976;30.316;2023-09-19T03:06:28;101248.06;;;8.71;77.75
75855;BME280;64502;59.976;30.316;2023-09-19T03:08:56;101240.97;;;8.73;77.62
75855;BME280;64502;59.976;30.316;2023-09-19T03:11:22;101241.81;;;8.74;77.39
75855;BME280;64502;59.976;30.316;2023-09-19T03:13:54;101245.16;;;8.77;76.33
75855;BME280;64502;59.976;30.316;2023-09-19T03:16:20;101247.59;;;8.82;78.24
75855;BME280;64502;59.976;30.316;2023-09-19T03:18:47;101243.00;;;8.87;76.91
75855;BME280;64502;59.976;30.316;2023-09-19T03:21:17;101233.91;;;8.94;77.80
75855;BME280;64502;59.976;30.316;2023-09-19T03:23:44;101226.53;;;9.02;76.60
75855;BME280;64502;59.976;30.316;2023-09-19T03:26:11;101236.69;;;9.11;76.33
75855;BME280;64502;59.976;30.316;2023-09-19T03:28:38;101227.53;;;9.20;76.78
75855;BME280;64502;59.976;30.316;2023-09-19T03:31:05;101217.50;;;9.28;76.70
75855;BME280;64502;59.976;30.316;2023-09-19T03:33:31;101201.38;;;9.36;76.38
75855;BME280;64502;59.976;30.316;2023-09-19T03:35:58;101207.97;;;9.45;76.00
75855;BME280;64502;59.976;30.316;2023-09-19T03:38:25;101201.56;;;9.50;74.27
75855;BME280;64502;59.976;30.316;2023-09-19T03:40:51;101184.63;;;9.56;74.18
75855;BME280;64502;59.976;30.316;2023-09-19T03:43:17;101180.06;;;9.60;74.75
75855;BME280;64502;59.976;30.316;2023-09-19T03:45:42;101180.72;;;9.65;74.83
75855;BME280;64502;59.976;30.316;2023-09-19T03:48:11;101183.94;;;9.71;73.60
75855;BME280;64502;59.976;30.316;2023-09-19T03:50:36;101162.69;;;9.74;74.40
75855;BME280;64502;59.976;30.316;2023-09-19T03:53:02;101157.19;;;9.79;73.92
75855;BME280;64502;59.976;30.316;2023-09-19T03:55:28;101147.44;;;9.81;73.12
75855;BME280;64502;59.976;30.316;2023-09-19T03:57:55;101138.53;;;9.84;73.38
75855;BME280;64502;59.976;30.316;2023-09-19T04:00:21;101134.88;;;9.86;73.50
75855;BME280;64502;59.976;30.316;2023-09-19T04:02:49;101124.13;;;9.91;72.22
75855;BME280;64502;59.976;30.316;2023-09-19T04:05:16;101121.34;;;9.94;72.77
75855;BME280;64502;59.976;30.316;2023-09-19T04:07:42;101122.88;;;9.98;72.36
75855;BME280;64502;59.976;30.316;2023-09-19T04:10:07;101118.34;;;10.02;72.85
75855;BME280;64502;59.976;30.316;2023-09-19T04:12:40;101114.53;;;10.07;72.80
75855;BME280;64502;59.976;30.316;2023-09-19T04:15:06;101110.03;;;10.09;72.08
75855;BME280;64502;59.976;30.316;2023-09-19T04:17:32;101108.00;;;10.14;72.78
75855;BME280;64502;59.976;30.316;2023-09-19T04:19:58;101095.44;;;10.19;72.20
75855;BME280;64502;59.976;30.316;2023-09-19T04:22:24;101098.72;;;10.25;72.48
75855;BME280;64502;59.976;30.316;2023-09-19T04:24:50;101085.41;;;10.28;71.75
75855;BME280;64502;59.976;30.316;2023-09-19T04:27:15;101079.06;;;10.32;72.44
75855;BME280;64502;59.976;30.316;2023-09-19T04:29:41;101081.44;;;10.36;71.38
75855;BME280;64502;59.976;30.316;2023-09-19T04:32:09;101072.50;;;10.39;72.06
75855;BME280;64502;59.976;30.316;2023-09-19T04:34:35;101064.44;;;10.42;71.65
75855;BME280;64502;59.976;30.316;2023-09-19T04:37:01;101057.28;;;10.44;70.99
75855;BME280;64502;59.976;30.316;2023-09-19T04:39:27;101051.00;;;10.47;70.93
75855;BME280;64502;59.976;30.316;2023-09-19T04:41:53;101049.16;;;10.49;70.82
75855;BME280;64502;59.976;30.316;2023-09-19T04:44:20;101040.28;;;10.50;71.18
75855;BME280;64502;59.976;30.316;2023-09-19T04:46:46;101033.09;;;10.53;70.80
75855;BME280;64502;59.976;30.316;2023-09-19T04:49:12;101036.31;;;10.58;69.52
75855;BME280;64502;59.976;30.316;2023-09-19T04:51:38;101029.19;;;10.60;70.13
75855;BME280;64502;59.976;30.316;2023-09-19T04:54:04;101028.00;;;10.66;70.20
75855;BME280;64502;59.976;30.316;2023-09-19T04:56:30;101035.59;;;10.72;69.93
75855;BME280;64502;59.976;30.316;2023-09-19T04:58:57;101036.13;;;10.79;69.87
75855;BME280;64502;59.976;30.316;2023-09-19T05:01:23;101024.53;;;10.81;69.80
75855;BME280;64502;59.976;30.316;2023-09-19T05:03:49;101026.06;;;10.85;68.89
75855;BME280;64502;59.976;30.316;2023-09-19T05:06:19;101011.66;;;10.91;69.38
75855;BME280;64502;59.976;30.316;2023-09-19T05:08:50;101010.34;;;11.00;69.21
75855;BME280;64502;59.976;30.316;2023-09-19T05:11:19;101004.72;;;11.06;68.27
75855;BME280;64502;59.976;30.316;2023-09-19T05:13:47;100995.75;;;11.08;68.58
75855;BME280;64502;59.976;30.316;2023-09-19T05:16:12;100985.69;;;11.15;68.60
75855;BME280;64502;59.976;30.316;2023-09-19T05:18:38;100987.25;;;11.19;67.68
75855;BME280;64502;59.976;30.316;2023-09-19T05:21:03;100986.97;;;11.24;68.32
75855;BME280;64502;59.976;30.316;2023-09-19T05:23:28;100972.06;;;11.23;68.07
75855;BME280;64502;59.976;30.316;2023-09-19T05:25:54;100979.22;;;11.21;67.45
75855;BME280;64502;59.976;30.316;2023-09-19T05:28:22;100975.72;;;11.20;68.06
75855;BME280;64502;59.976;30.316;2023-09-19T05:30:47;100979.91;;;11.24;67.82
75855;BME280;64502;59.976;30.316;2023-09-19T05:33:14;100960.13;;;11.31;68.46
75855;BME280;64502;59.976;30.316;2023-09-19T05:35:39;100953.44;;;11.40;68.42
75855;BME280;64502;59.976;30.316;2023-09-19T05:38:07;100957.69;;;11.43;66.86
75855;BME280;64502;59.976;30.316;2023-09-19T05:40:38;100951.69;;;11.41;67.18
75855;BME280;64502;59.976;30.316;2023-09-19T05:43:04;100947.69;;;11.33;67.54
75855;BME280;64502;59.976;30.316;2023-09-19T05:45:31;100940.13;;;11.27;68.52
75855;BME280;64502;59.976;30.316;2023-09-19T05:48:07;100939.34;;;11.25;68.26
75855;BME280;64502;59.976;30.316;2023-09-19T05:50:33;100940.81;;;11.15;68.56
75855;BME280;64502;59.976;30.316;2023-09-19T05:52:59;100931.19;;;11.14;67.60
75855;BME280;64502;59.976;30.316;2023-09-19T05:55:24;100926.75;;;11.15;68.56
75855;BME280;64502;59.976;30.316;2023-09-19T05:57:53;100921.28;;;11.18;67.37
75855;BME280;64502;59.976;30.316;2023-09-19T06:00:20;100928.13;;;11.22;68.34
75855;BME280;64502;59.976;30.316;2023-09-19T06:02:52;100918.22;;;11.25;67.77
75855;BME280;64502;59.976;30.316;2023-09-19T06:05:18;100915.50;;;11.27;68.35
75855;BME280;64502;59.976;30.316;2023-09-19T06:07:43;100918.69;;;11.32;68.90
75855;BME280;64502;59.976;30.316;2023-09-19T06:10:09;100918.44;;;11.37;68.59
75855;BME280;64502;59.976;30.316;2023-09-19T06:12:42;100911.75;;;11.45;68.91
75855;BME280;64502;59.976;30.316;2023-09-19T06:15:12;100907.91;;;11.51;68.54
75855;BME280;64502;59.976;30.316;2023-09-19T06:17:47;100908.28;;;11.59;69.04
75855;BME280;64502;59.976;30.316;2023-09-19T06:20:12;100896.50;;;11.65;69.02
75855;BME280;64502;59.976;30.316;2023-09-19T06:22:45;100899.66;;;11.71;69.54
75855;BME280;64502;59.976;30.316;2023-09-19T06:25:12;100893.97;;;11.77;68.50
75855;BME280;64502;59.976;30.316;2023-09-19T06:27:38;100890.13;;;11.83;68.68
75855;BME280;64502;59.976;30.316;2023-09-19T06:30:07;100895.63;;;11.94;67.15
75855;BME280;64502;59.976;30.316;2023-09-19T06:32:33;100896.31;;;11.98;68.55
75855;BME280;64502;59.976;30.316;2023-09-19T06:35:01;100879.94;;;12.06;69.43
75855;BME280;64502;59.976;30.316;2023-09-19T06:37:28;100876.66;;;12.16;68.09
75855;BME280;64502;59.976;30.316;2023-09-19T06:39:54;100875.13;;;12.27;68.67
75855;BME280;64502;59.976;30.316;2023-09-19T06:42:19;100865.41;;;12.41;68.30
75855;BME280;64502;59.976;30.316;2023-09-19T06:44:46;100857.28;;;12.57;67.85
75855;BME280;64502;59.976;30.316;2023-09-19T06:47:11;100861.31;;;12.77;67.43
75855;BME280;64502;59.976;30.316;2023-09-19T06:49:37;100851.84;;;13.00;67.67
75855;BME280;64502;59.976;30.316;2023-09-19T06:52:02;100848.53;;;13.24;66.20
75855;BME280;64502;59.976;30.316;2023-09-19T06:54:28;100843.72;;;13.43;66.28
75855;BME280;64502;59.976;30.316;2023-09-19T06:56:57;100845.00;;;13.63;65.77
75855;BME280;64502;59.976;30.316;2023-09-19T06:59:24;100841.28;;;13.79;65.68
75855;BME280;64502;59.976;30.316;2023-09-19T07:01:49;100825.56;;;13.88;65.84
75855;BME280;64502;59.976;30.316;2023-09-19T07:04:16;100820.47;;;13.98;64.78
75855;BME280;64502;59.976;30.316;2023-09-19T07:06:42;100815.47;;;14.06;64.69
75855;BME280;64502;59.976;30.316;2023-09-19T07:09:08;100812.50;;;14.11;64.72
75855;BME280;64502;59.976;30.316;2023-09-19T07:11:34;100817.69;;;14.12;64.68
75855;BME280;64502;59.976;30.316;2023-09-19T07:14:00;100812.78;;;14.19;64.14
75855;BME280;64502;59.976;30.316;2023-09-19T07:16:28;100821.38;;;14.23;64.55
75855;BME280;64502;59.976;30.316;2023-09-19T07:18:55;100808.72;;;14.26;65.08
75855;BME280;64502;59.976;30.316;2023-09-19T07:21:22;100806.81;;;14.28;64.80
75855;BME280;64502;59.976;30.316;2023-09-19T07:23:48;100802.47;;;14.27;64.76
75855;BME280;64502;59.976;30.316;2023-09-19T07:26:15;100807.44;;;14.32;64.97
75855;BME280;64502;59.976;30.316;2023-09-19T07:28:41;100802.88;;;14.34;64.86
75855;BME280;64502;59.976;30.316;2023-09-19T07:31:06;100808.78;;;14.37;64.92
75855;BME280;64502;59.976;30.316;2023-09-19T07:33:36;100802.19;;;14.43;65.44
75855;BME280;64502;59.976;30.316;2023-09-19T07:36:02;100794.50;;;14.51;64.76
75855;BME280;64502;59.976;30.316;2023-09-19T07:38:27;100794.72;;;14.61;64.51
75855;BME280;64502;59.976;30.316;2023-09-19T07:40:53;100797.03;;;14.65;64.78
75855;BME280;64502;59.976;30.316;2023-09-19T07:43:18;100790.75;;;14.67;64.44
75855;BME280;64502;59.976;30.316;2023-09-19T07:45:44;100770.75;;;14.74;64.40
75855;BME280;64502;59.976;30.316;2023-09-19T07:48:09;100768.63;;;14.79;64.17
75855;BME280;64502;59.976;30.316;2023-09-19T07:50:40;100775.13;;;14.86;64.56
75855;BME280;64502;59.976;30.316;2023-09-19T07:53:08;100762.03;;;14.96;63.65
75855;BME280;64502;59.976;30.316;2023-09-19T07:55:34;100761.22;;;15.06;64.29
75855;BME280;64502;59.976;30.316;2023-09-19T07:57:59;100761.47;;;15.15;63.59
75855;BME280;64502;59.976;30.316;2023-09-19T08:00:25;100755.56;;;15.22;63.82
75855;BME280;64502;59.976;30.316;2023-09-19T08:02:50;100741.78;;;15.28;63.99
75855;BME280;64502;59.976;30.316;2023-09-19T08:05:17;100734.56;;;15.42;64.04
75855;BME280;64502;59.976;30.316;2023-09-19T08:07:45;100745.19;;;15.53;63.51
75855;BME280;64502;59.976;30.316;2023-09-19T08:10:21;100739.63;;;15.67;63.23
75855;BME280;64502;59.976;30.316;2023-09-19T08:12:48;100738.81;;;15.78;63.25
75855;BME280;64502;59.976;30.316;2023-09-19T08:15:18;100732.88;;;15.86;62.54
75855;BME280;64502;59.976;30.316;2023-09-19T08:17:45;100733.22;;;15.92;62.72
75855;BME280;64502;59.976;30.316;2023-09-19T08:20:11;100727.19;;;16.02;62.81
75855;BME280;64502;59.976;30.316;2023-09-19T08:22:49;100721.56;;;16.16;62.51
75855;BME280;64502;59.976;30.316;2023-09-19T08:25:18;100726.00;;;16.27;62.49
75855;BME280;64502;59.976;30.316;2023-09-19T08:27:48;100720.66;;;16.38;62.68
75855;BME280;64502;59.976;30.316;2023-09-19T08:30:24;100716.72;;;16.53;62.30
75855;BME280;64502;59.976;30.316;2023-09-19T08:32:50;100714.69;;;16.67;61.62
75855;BME280;64502;59.976;30.316;2023-09-19T08:35:15;100718.72;;;16.61;62.01
75855;BME280;64502;59.976;30.316;2023-09-19T08:37:42;100714.38;;;16.60;61.92
75855;BME280;64502;59.976;30.316;2023-09-19T08:40:08;100714.06;;;16.53;62.90
75855;BME280;64502;59.976;30.316;2023-09-19T08:45:14;100707.22;;;16.60;63.12
75855;BME280;64502;59.976;30.316;2023-09-19T08:47:46;100698.06;;;16.74;62.79
75855;BME280;64502;59.976;30.316;2023-09-19T08:50:19;100694.00;;;16.91;62.04
75855;BME280;64502;59.976;30.316;2023-09-19T08:52:51;100679.94;;;17.10;62.12
75855;BME280;64502;59.976;30.316;2023-09-19T08:55:26;100664.75;;;17.31;61.42
75855;BME280;64502;59.976;30.316;2023-09-19T08:58:02;100661.19;;;17.62;60.91
75855;BME280;64502;59.976;30.316;2023-09-19T09:00:28;100650.66;;;18.01;59.67
75855;BME280;64502;59.976;30.316;2023-09-19T09:02:56;100642.06;;;18.55;58.56
75855;BME280;64502;59.976;30.316;2023-09-19T09:05:23;100640.94;;;19.15;56.57
75855;BME280;64502;59.976;30.316;2023-09-19T09:07:52;100630.72;;;19.65;56.23
75855;BME280;64502;59.976;30.316;2023-09-19T09:10:20;100626.63;;;20.07;54.09
75855;BME280;64502;59.976;30.316;2023-09-19T09:12:50;100614.44;;;20.66;53.50
75855;BME280;64502;59.976;30.316;2023-09-19T09:15:21;100602.88;;;21.34;51.84
75855;BME280;64502;59.976;30.316;2023-09-19T09:17:49;100596.19;;;21.89;50.32
75855;BME280;64502;59.976;30.316;2023-09-19T09:20:16;100593.69;;;22.20;49.98
75855;BME280;64502;59.976;30.316;2023-09-19T09:22:55;100590.84;;;22.46;50.67
75855;BME280;64502;59.976;30.316;2023-09-19T09:25:52;100568.28;;;22.55;51.00
75855;BME280;64502;59.976;30.316;2023-09-19T09:28:23;100570.75;;;22.81;48.83
75855;BME280;64502;59.976;30.316;2023-09-19T09:30:49;100570.56;;;22.91;47.94
75855;BME280;64502;59.976;30.316;2023-09-19T09:33:15;100577.69;;;22.76;48.23
75855;BME280;64502;59.976;30.316;2023-09-19T09:35:55;100566.41;;;22.64;50.18
75855;BME280;64502;59.976;30.316;2023-09-19T09:38:26;100563.41;;;22.67;49.63
75855;BME280;64502;59.976;30.316;2023-09-19T09:40:54;100557.31;;;22.81;48.49
75855;BME280;64502;59.976;30.316;2023-09-19T09:43:33;100547.88;;;22.86;49.26
75855;BME280;64502;59.976;30.316;2023-09-19T09:46:16;100556.63;;;22.96;49.66
75855;BME280;64502;59.976;30.316;2023-09-19T09:48:45;100553.19;;;23.10;47.80
75855;BME280;64502;59.976;30.316;2023-09-19T09:51:31;100549.28;;;23.52;48.23
75855;BME280;64502;59.976;30.316;2023-09-19T09:54:16;100542.84;;;23.84;48.66
75855;BME280;64502;59.976;30.316;2023-09-19T09:56:59;100534.03;;;24.13;47.88
75855;BME280;64502;59.976;30.316;2023-09-19T09:59:55;100533.41;;;24.41;47.06
75855;BME280;64502;59.976;30.316;2023-09-19T10:04:55;100523.78;;;24.76;45.31
75855;BME280;64502;59.976;30.316;2023-09-19T10:07:32;100524.81;;;24.90;44.75
75855;BME280;64502;59.976;30.316;2023-09-19T10:10:01;100520.34;;;24.83;45.28
75855;BME280;64502;59.976;30.316;2023-09-19T10:12:48;100517.72;;;24.74;45.11
75855;BME280;64502;59.976;30.316;2023-09-19T10:15:18;100514.22;;;24.59;46.40
75855;BME280;64502;59.976;30.316;2023-09-19T10:17:52;100523.09;;;24.30;46.35
75855;BME280;64502;59.976;30.316;2023-09-19T10:20:23;100512.19;;;24.23;46.67
75855;BME280;64502;59.976;30.316;2023-09-19T10:22:50;100508.13;;;24.42;46.86
75855;BME280;64502;59.976;30.316;2023-09-19T10:25:27;100496.31;;;24.88;46.37
75855;BME280;64502;59.976;30.316;2023-09-19T10:27:57;100494.41;;;25.33;45.00
75855;BME280;64502;59.976;30.316;2023-09-19T10:30:29;100494.56;;;25.67;44.57
75855;BME280;64502;59.976;30.316;2023-09-19T10:33:04;100491.25;;;25.94;45.29
75855;BME280;64502;59.976;30.316;2023-09-19T10:35:30;100488.41;;;26.30;44.17
75855;BME280;64502;59.976;30.316;2023-09-19T10:37:57;100486.88;;;26.49;45.08
75855;BME280;64502;59.976;30.316;2023-09-19T10:40:24;100461.69;;;26.48;42.68
75855;BME280;64502;59.976;30.316;2023-09-19T10:43:00;100460.81;;;26.76;42.31
75855;BME280;64502;59.976;30.316;2023-09-19T10:45:28;100461.84;;;26.75;42.42
75855;BME280;64502;59.976;30.316;2023-09-19T10:47:57;100457.34;;;26.95;41.99
75855;BME280;64502;59.976;30.316;2023-09-19T10:50:23;100445.41;;;27.44;40.98
75855;BME280;64502;59.976;30.316;2023-09-19T10:52:50;100439.81;;;27.93;40.46
75855;BME280;64502;59.976;30.316;2023-09-19T10:55:25;100438.06;;;28.38;39.49
75855;BME280;64502;59.976;30.316;2023-09-19T10:57:51;100430.91;;;28.64;39.05
75855;BME280;64502;59.976;30.316;2023-09-19T11:00:18;100423.09;;;28.87;38.66
75855;BME280;64502;59.976;30.316;2023-09-19T11:03:16;100417.13;;;29.10;40.42
75855;BME280;64502;59.976;30.316;2023-09-19T11:06:00;100424.25;;;29.11;39.64
75855;BME280;64502;59.976;30.316;2023-09-19T11:08:27;100414.19;;;28.67;38.92
75855;BME280;64502;59.976;30.316;2023-09-19T11:10:52;100416.41;;;28.18;39.72
75855;BME280;64502;59.976;30.316;2023-09-19T11:13:28;100411.88;;;27.72;41.45
75855;BME280;64502;59.976;30.316;2023-09-19T11:26:43;100407.88;;;27.35;44.03
75855;BME280;64502;59.976;30.316;2023-09-19T11:31:51;100399.72;;;27.21;42.96
75855;BME280;64502;59.976;30.316;2023-09-19T11:34:43;100396.00;;;27.36;43.34
75855;BME280;64502;59.976;30.316;2023-09-19T11:48:13;100368.13;;;26.26;45.20
75855;BME280;64502;59.976;30.316;2023-09-19T11:50:42;100372.41;;;26.07;45.31
75855;BME280;64502;59.976;30.316;2023-09-19T11:53:10;100378.13;;;25.69;46.10
75855;BME280;64502;59.976;30.316;2023-09-19T11:55:38;100387.19;;;25.33;47.06
75855;BME280;64502;59.976;30.316;2023-09-19T11:58:06;100374.00;;;25.02;47.53
75855;BME280;64502;59.976;30.316;2023-09-19T12:00:33;100374.69;;;24.89;48.47
75855;BME280;64502;59.976;30.316;2023-09-19T12:03:04;100373.31;;;24.78;48.67
75855;BME280;64502;59.976;30.316;2023-09-19T12:05:32;100369.53;;;24.73;48.43
75855;BME280;64502;59.976;30.316;2023-09-19T12:07:59;100374.16;;;24.79;48.70
75855;BME280;64502;59.976;30.316;2023-09-19T12:10:25;100372.75;;;24.83;48.57
75855;BME280;64502;59.976;30.316;2023-09-19T12:12:50;100366.16;;;24.86;48.32
75855;BME280;64502;59.976;30.316;2023-09-19T12:15:24;100376.09;;;24.85;48.69
75855;BME280;64502;59.976;30.316;2023-09-19T12:17:54;100369.28;;;24.89;48.20
75855;BME280;64502;59.976;30.316;2023-09-19T12:20:19;100351.31;;;24.96;47.80
75855;BME280;64502;59.976;30.316;2023-09-19T12:22:46;100349.00;;;25.15;47.32
75855;BME280;64502;59.976;30.316;2023-09-19T12:25:14;100342.47;;;25.52;46.83
75855;BME280;64502;59.976;30.316;2023-09-19T12:27:49;100346.09;;;25.94;46.11
75855;BME280;64502;59.976;30.316;2023-09-19T12:30:27;100345.28;;;26.35;45.53
75855;BME280;64502;59.976;30.316;2023-09-19T12:32:52;100337.47;;;26.53;45.31
75855;BME280;64502;59.976;30.316;2023-09-19T12:35:32;100329.41;;;26.60;45.47
75855;BME280;64502;59.976;30.316;2023-09-19T12:38:02;100333.72;;;26.13;44.82
75855;BME280;64502;59.976;30.316;2023-09-19T12:40:29;100331.03;;;25.78;45.81
75855;BME280;64502;59.976;30.316;2023-09-19T12:42:58;100334.34;;;25.24;46.80
75855;BME280;64502;59.976;30.316;2023-09-19T12:45:25;100339.72;;;24.81;48.18
75855;BME280;64502;59.976;30.316;2023-09-19T12:51:04;100323.53;;;24.30;49.47
75855;BME280;64502;59.976;30.316;2023-09-19T12:53:32;100321.16;;;24.05;50.08
75855;BME280;64502;59.976;30.316;2023-09-19T12:56:00;100327.56;;;23.89;50.04
75855;BME280;64502;59.976;30.316;2023-09-19T12:58:26;100305.59;;;23.63;50.52
75855;BME280;64502;59.976;30.316;2023-09-19T13:00:55;100304.91;;;23.46;51.46
75855;BME280;64502;59.976;30.316;2023-09-19T13:06:02;100291.59;;;23.15;52.02
75855;BME280;64502;59.976;30.316;2023-09-19T13:08:34;100285.84;;;23.18;52.40
75855;BME280;64502;59.976;30.316;2023-09-19T13:11:07;100279.91;;;23.22;52.24
75855;BME280;64502;59.976;30.316;2023-09-19T13:13:45;100270.56;;;23.33;52.38
75855;BME280;64502;59.976;30.316;2023-09-19T13:16:16;100269.56;;;23.49;51.96
75855;BME280;64502;59.976;30.316;2023-09-19T13:18:48;100270.84;;;23.68;52.31
75855;BME280;64502;59.976;30.316;2023-09-19T13:21:17;100273.03;;;23.87;51.71
75855;BME280;64502;59.976;30.316;2023-09-19T13:23:54;100262.34;;;23.79;51.38
75855;BME280;64502;59.976;30.316;2023-09-19T13:26:27;100255.28;;;23.78;52.16
75855;BME280;64502;59.976;30.316;2023-09-19T13:28:54;100251.38;;;23.81;51.28
75855;BME280;64502;59.976;30.316;2023-09-19T13:31:20;100242.53;;;23.87;51.62
75855;BME280;64502;59.976;30.316;2023-09-19T13:33:48;100245.59;;;23.99;52.06
75855;BME280;64502;59.976;30.316;2023-09-19T13:36:14;100242.41;;;24.10;51.10
75855;BME280;64502;59.976;30.316;2023-09-19T13:38:43;100241.44;;;24.47;50.59
75855;BME280;64502;59.976;30.316;2023-09-19T13:41:13;100234.91;;;24.85;49.71
75855;BME280;64502;59.976;30.316;2023-09-19T13:43:39;100226.94;;;24.98;49.54
75855;BME280;64502;59.976;30.316;2023-09-19T13:46:05;100225.97;;;25.06;49.46
75855;BME280;64502;59.976;30.316;2023-09-19T13:48:33;100233.13;;;24.92;49.48